Time;durP1;ratioP1;P1;durP2;ratioP2;P2;SDS_P1;SDS_P2;PMS_P1;PMS_P2;Temp;Humidity;BMP_temperature;BMP_pressure;BME280_temperature;BME280_humidity;BME280_pressure;Samples;Min_cycle;Max_cycle;Signal;HPM_P1;HPM_P2
2021/07/31 00:01:33;;;;;;;6.00;5.43;;;17.80;99.90;;;;;;5046287;28;20200;-46
2021/07/31 00:04:00;;;;;;;5.63;5.23;;;17.80;99.90;;;;;;5042670;28;20229;-47
2021/07/31 00:06:27;;;;;;;5.87;5.30;;;17.80;99.90;;;;;;5045498;28;20227;-43
2021/07/31 00:08:54;;;;;;;5.80;5.40;;;17.80;99.90;;;;;;5023489;28;20204;-45
2021/07/31 00:11:22;;;;;;;5.93;5.00;;;17.80;99.90;;;;;;5044028;28;20187;-46
2021/07/31 00:13:48;;;;;;;5.83;5.37;;;17.80;99.90;;;;;;5045517;28;20195;-47
2021/07/31 00:16:15;;;;;;;4.40;4.10;;;17.70;99.90;;;;;;5043194;28;20888;-45
2021/07/31 00:18:42;;;;;;;5.23;4.73;;;17.70;99.90;;;;;;5045933;28;20199;-45
2021/07/31 00:21:09;;;;;;;5.43;4.17;;;17.70;99.90;;;;;;5042001;28;20194;-43
2021/07/31 00:23:35;;;;;;;4.70;4.27;;;17.60;99.90;;;;;;5026003;28;20262;-44
2021/07/31 00:26:02;;;;;;;5.63;4.70;;;17.60;99.90;;;;;;5033897;28;20218;-45
2021/07/31 00:28:30;;;;;;;4.93;4.30;;;17.60;99.90;;;;;;5046223;28;20210;-45
2021/07/31 00:30:57;;;;;;;4.93;4.43;;;17.60;99.90;;;;;;5042935;28;20555;-45
2021/07/31 00:33:23;;;;;;;6.43;4.27;;;17.60;99.90;;;;;;5040041;28;20196;-46
2021/07/31 00:35:50;;;;;;;4.43;4.10;;;17.50;99.90;;;;;;5042838;28;20576;-47
2021/07/31 00:38:16;;;;;;;4.70;4.30;;;17.50;99.90;;;;;;5025513;28;25424;-46
2021/07/31 00:40:43;;;;;;;4.47;4.07;;;17.50;99.90;;;;;;5043024;28;20195;-44
2021/07/31 00:43:10;;;;;;;5.17;4.50;;;17.50;99.90;;;;;;5041006;28;20194;-44
2021/07/31 00:45:38;;;;;;;4.00;3.70;;;17.40;99.90;;;;;;5045863;28;20214;-46
2021/07/31 00:48:05;;;;;;;4.70;4.20;;;17.40;99.90;;;;;;5041389;28;20998;-44
2021/07/31 00:50:34;;;;;;;4.50;4.10;;;17.40;99.90;;;;;;5045607;28;20231;-45
2021/07/31 00:53:01;;;;;;;4.60;4.20;;;17.40;99.90;;;;;;5042050;28;20681;-45
2021/07/31 00:55:29;;;;;;;4.93;4.10;;;17.40;99.90;;;;;;5024091;28;20298;-45
2021/07/31 00:57:57;;;;;;;4.67;4.37;;;17.40;99.90;;;;;;5041225;28;20607;-45
2021/07/31 01:00:41;;;;;;;5.47;4.70;;;17.30;99.90;;;;;;5043739;28;20195;-44
2021/07/31 01:03:08;;;;;;;4.77;4.47;;;17.30;99.90;;;;;;5041154;28;20195;-46
2021/07/31 01:05:36;;;;;;;4.80;4.37;;;17.30;99.90;;;;;;5044344;28;20218;-47
2021/07/31 01:08:03;;;;;;;5.00;4.50;;;17.30;99.90;;;;;;5033289;28;20584;-44
2021/07/31 01:10:32;;;;;;;5.03;4.53;;;17.30;99.90;;;;;;5029108;28;20699;-45
2021/07/31 01:13:01;;;;;;;5.40;4.90;;;17.20;99.90;;;;;;5041801;28;20202;-49
2021/07/31 01:15:30;;;;;;;5.70;4.30;;;17.20;99.90;;;;;;5045127;28;20207;-46
2021/07/31 01:17:58;;;;;;;5.40;4.90;;;17.20;99.90;;;;;;5041291;28;20238;-44
2021/07/31 01:20:25;;;;;;;4.53;4.20;;;17.20;99.90;;;;;;5044117;28;20207;-47
2021/07/31 01:23:01;;;;;;;4.80;4.30;;;17.20;99.90;;;;;;5041815;28;20179;-43
2021/07/31 01:25:28;;;;;;;4.67;4.27;;;17.20;99.90;;;;;;5017177;28;20207;-47
2021/07/31 01:27:55;;;;;;;4.47;4.00;;;17.20;99.90;;;;;;5044322;28;20215;-46
2021/07/31 01:30:22;;;;;;;4.90;4.00;;;17.10;99.90;;;;;;5040638;28;20785;-47
2021/07/31 01:32:48;;;;;;;4.20;3.77;;;17.10;99.90;;;;;;5041296;28;20903;-44
2021/07/31 01:35:15;;;;;;;3.97;3.63;;;17.00;99.90;;;;;;5042916;28;20557;-47
2021/07/31 01:37:42;;;;;;;3.60;3.30;;;17.00;99.90;;;;;;5041021;28;20200;-44
2021/07/31 01:40:13;;;;;;;4.50;4.10;;;16.90;99.90;;;;;;5026718;28;20226;-44
2021/07/31 01:42:40;;;;;;;4.20;3.90;;;16.90;99.90;;;;;;5039062;28;20899;-44
2021/07/31 01:45:08;;;;;;;4.63;4.23;;;16.90;99.90;;;;;;5062911;28;20213;-45
2021/07/31 01:47:37;;;;;;;5.77;4.97;;;16.80;99.90;;;;;;5059384;28;20218;-43
2021/07/31 01:50:06;;;;;;;6.23;4.90;;;16.70;99.90;;;;;;5064181;28;20202;-44
2021/07/31 01:52:41;;;;;;;7.00;5.40;;;16.70;99.90;;;;;;5059991;28;20193;-45
2021/07/31 01:55:08;;;;;;;9.57;6.33;;;16.70;99.90;;;;;;5064377;28;20672;-44
2021/07/31 01:57:37;;;;;;;7.30;5.50;;;16.70;99.90;;;;;;5023650;28;20219;-44
2021/07/31 02:00:22;;;;;;;7.30;6.37;;;16.70;99.90;;;;;;5022220;28;20215;-47
2021/07/31 02:03:04;;;;;;;7.23;6.53;;;16.60;99.90;;;;;;5024380;28;20212;-44
2021/07/31 02:05:39;;;;;;;7.77;7.00;;;16.60;99.90;;;;;;5030764;28;20194;-45
2021/07/31 02:08:07;;;;;;;7.37;6.60;;;16.60;99.90;;;;;;5042596;28;20596;-45
2021/07/31 02:10:48;;;;;;;7.90;7.20;;;16.60;99.90;;;;;;5024872;28;20211;-43
2021/07/31 02:13:17;;;;;;;6.30;5.77;;;16.50;99.90;;;;;;5041543;28;20203;-44
2021/07/31 02:15:45;;;;;;;5.57;5.07;;;16.50;99.90;;;;;;5040074;28;20187;-43
2021/07/31 02:18:16;;;;;;;6.10;5.53;;;16.50;99.90;;;;;;5042792;28;20251;-44
2021/07/31 02:20:44;;;;;;;5.83;5.20;;;16.40;99.90;;;;;;5040209;28;20195;-45
2021/07/31 02:23:26;;;;;;;5.00;4.50;;;16.40;99.90;;;;;;5039359;28;20202;-45
2021/07/31 02:26:11;;;;;;;6.43;4.80;;;16.40;99.90;;;;;;5027469;28;20241;-44
2021/07/31 02:28:57;;;;;;;4.67;4.27;;;16.40;99.90;;;;;;5041990;28;20195;-44
2021/07/31 02:31:24;;;;;;;4.27;3.87;;;16.30;99.90;;;;;;5041042;28;20672;-44
2021/07/31 02:33:52;;;;;;;4.47;4.07;;;16.30;99.90;;;;;;5041574;28;20298;-44
2021/07/31 02:36:21;;;;;;;4.17;3.77;;;16.30;99.90;;;;;;5039876;28;20773;-44
2021/07/31 02:38:58;;;;;;;4.80;3.80;;;16.30;99.90;;;;;;5040835;28;20640;-43
2021/07/31 02:41:25;;;;;;;3.97;3.57;;;16.30;99.90;;;;;;5028847;28;20187;-44
2021/07/31 02:43:53;;;;;;;4.67;3.33;;;16.30;99.90;;;;;;5037979;28;20215;-44
2021/07/31 02:46:21;;;;;;;3.97;3.37;;;16.30;99.90;;;;;;5040398;28;20223;-44
2021/07/31 02:48:48;;;;;;;5.13;3.27;;;16.20;99.90;;;;;;5040324;28;20253;-43
2021/07/31 02:51:15;;;;;;;3.60;2.90;;;16.20;99.90;;;;;;5040915;28;20196;-44
2021/07/31 02:54:02;;;;;;;3.80;2.93;;;16.20;99.90;;;;;;5042694;28;20199;-46
2021/07/31 02:56:33;;;;;;;3.17;2.87;;;16.10;99.90;;;;;;5022988;28;20342;-46
2021/07/31 02:59:01;;;;;;;2.63;2.43;;;16.10;99.90;;;;;;5050138;28;20198;-44
2021/07/31 03:01:31;;;;;;;4.83;3.10;;;16.10;99.90;;;;;;5038322;28;20191;-46
2021/07/31 03:03:58;;;;;;;4.23;2.53;;;16.10;99.90;;;;;;5043909;28;20215;-43
2021/07/31 03:06:25;;;;;;;2.57;2.37;;;16.10;99.90;;;;;;5040044;28;20224;-46
2021/07/31 03:08:52;;;;;;;3.33;2.47;;;16.10;99.90;;;;;;5042773;28;20256;-44
2021/07/31 03:11:19;;;;;;;4.63;2.43;;;16.10;99.90;;;;;;5034313;28;20290;-45
2021/07/31 03:13:46;;;;;;;2.37;2.17;;;16.10;99.90;;;;;;5033353;28;20941;-43
2021/07/31 03:16:13;;;;;;;2.90;2.27;;;16.10;99.90;;;;;;5041469;28;20219;-48
2021/07/31 03:18:46;;;;;;;6.50;2.53;;;16.10;99.90;;;;;;5039598;28;20192;-43
2021/07/31 03:21:15;;;;;;;4.20;2.33;;;16.00;99.90;;;;;;5046185;28;20230;-44
2021/07/31 03:23:53;;;;;;;2.73;2.40;;;16.00;99.90;;;;;;5045664;28;20281;-45
2021/07/31 03:26:20;;;;;;;4.63;2.33;;;16.00;99.90;;;;;;5043535;28;20305;-44
2021/07/31 03:28:47;;;;;;;4.37;2.37;;;16.00;99.90;;;;;;5026801;28;20296;-44
2021/07/31 03:31:19;;;;;;;2.67;2.30;;;15.90;99.90;;;;;;5044918;28;20196;-48
2021/07/31 03:33:48;;;;;;;5.03;2.67;;;15.90;99.90;;;;;;5043830;28;20184;-43
2021/07/31 03:36:14;;;;;;;2.97;2.33;;;15.90;99.90;;;;;;5046165;28;20584;-44
2021/07/31 03:38:57;;;;;;;2.67;2.47;;;15.90;99.90;;;;;;5034674;28;20223;-45
2021/07/31 03:41:25;;;;;;;2.60;2.40;;;15.90;99.90;;;;;;5047001;28;20207;-44
2021/07/31 03:43:55;;;;;;;3.30;2.30;;;15.80;99.90;;;;;;5025557;28;20287;-48
2021/07/31 03:46:22;;;;;;;2.90;2.30;;;15.80;99.90;;;;;;5044175;28;20215;-44
2021/07/31 03:48:50;;;;;;;2.40;2.20;;;15.80;99.90;;;;;;5044593;28;20211;-46
2021/07/31 03:51:17;;;;;;;4.20;2.30;;;15.80;99.90;;;;;;5043599;28;20191;-44
2021/07/31 03:53:47;;;;;;;3.67;2.13;;;15.80;99.90;;;;;;5045110;28;20187;-45
2021/07/31 03:56:15;;;;;;;2.93;2.20;;;15.90;99.90;;;;;;5044562;28;20969;-45
2021/07/31 03:58:45;;;;;;;3.43;1.93;;;15.90;99.90;;;;;;5026002;28;20191;-47
2021/07/31 04:01:12;;;;;;;5.07;2.20;;;15.90;99.90;;;;;;5037029;28;20239;-45
2021/07/31 04:03:40;;;;;;;4.40;2.10;;;16.00;99.90;;;;;;5042538;28;20207;-44
2021/07/31 04:06:08;;;;;;;3.23;2.20;;;16.00;99.90;;;;;;5041082;28;20312;-47
2021/07/31 04:08:43;;;;;;;2.70;1.70;;;16.00;99.90;;;;;;5041954;28;20230;-44
2021/07/31 04:11:29;;;;;;;3.30;2.17;;;16.00;99.90;;;;;;5024091;28;21056;-44
2021/07/31 04:14:14;;;;;;;3.70;2.43;;;16.10;99.90;;;;;;5037657;28;20202;-48
2021/07/31 04:16:52;;;;;;;3.77;1.70;;;16.10;99.90;;;;;;5043160;28;20576;-45
2021/07/31 04:19:19;;;;;;;3.10;1.97;;;16.20;99.90;;;;;;5030790;28;20199;-46
2021/07/31 04:21:53;;;;;;;2.67;1.60;;;16.20;99.90;;;;;;5038462;28;20215;-45
2021/07/31 04:24:20;;;;;;;2.00;1.90;;;16.20;99.90;;;;;;5035778;28;20633;-45
2021/07/31 04:26:47;;;;;;;4.93;2.10;;;16.20;99.90;;;;;;5041105;28;20233;-43
2021/07/31 04:29:14;;;;;;;4.70;1.90;;;16.20;99.90;;;;;;5039683;28;20199;-47
2021/07/31 04:31:41;;;;;;;3.57;2.00;;;16.20;99.90;;;;;;5013712;28;20192;-47
2021/07/31 04:34:08;;;;;;;3.90;2.20;;;16.30;99.90;;;;;;5031168;28;20192;-46
2021/07/31 04:36:36;;;;;;;5.60;1.90;;;16.30;99.90;;;;;;5032656;28;20558;-44
2021/07/31 04:39:06;;;;;;;6.50;2.10;;;16.30;99.90;;;;;;5047780;28;20225;-44
2021/07/31 04:41:33;;;;;;;5.10;2.47;;;16.30;99.90;;;;;;5044755;28;20215;-46
2021/07/31 04:44:00;;;;;;;4.53;2.20;;;16.20;99.90;;;;;;5034546;28;20191;-44
2021/07/31 04:46:27;;;;;;;4.20;2.10;;;16.30;99.90;;;;;;5023098;28;20257;-44
2021/07/31 04:48:54;;;;;;;2.90;2.17;;;16.30;99.90;;;;;;5040288;28;20586;-50
2021/07/31 04:51:21;;;;;;;3.40;2.30;;;16.30;99.90;;;;;;5037792;28;20214;-50
2021/07/31 04:53:47;;;;;;;3.07;2.10;;;16.30;99.90;;;;;;5042617;28;20200;-48
2021/07/31 04:56:15;;;;;;;2.60;2.10;;;16.30;99.90;;;;;;5043621;28;20886;-47
2021/07/31 04:58:42;;;;;;;2.80;2.00;;;16.30;99.90;;;;;;5039526;28;20202;-46
2021/07/31 05:01:09;;;;;;;4.23;1.63;;;16.30;99.90;;;;;;5018376;28;21979;-45
2021/07/31 05:03:35;;;;;;;3.43;2.00;;;16.30;99.90;;;;;;5041600;28;20203;-47
2021/07/31 05:06:05;;;;;;;3.60;2.40;;;16.40;99.90;;;;;;5036294;28;21081;-46
2021/07/31 05:08:32;;;;;;;3.77;1.93;;;16.40;99.90;;;;;;5044891;28;20269;-47
2021/07/31 05:10:59;;;;;;;4.43;1.90;;;16.40;99.90;;;;;;5040589;28;20807;-50
2021/07/31 05:13:27;;;;;;;3.87;1.70;;;16.40;99.90;;;;;;5045205;28;20198;-46
2021/07/31 05:15:54;;;;;;;5.70;2.30;;;16.40;99.90;;;;;;5041412;28;20313;-48
2021/07/31 05:18:20;;;;;;;4.27;2.00;;;16.40;99.90;;;;;;5023104;28;20203;-46
2021/07/31 05:20:47;;;;;;;2.63;2.10;;;16.50;99.90;;;;;;5041987;28;20875;-46
2021/07/31 05:23:15;;;;;;;1.70;1.57;;;16.50;99.90;;;;;;5035623;28;21053;-45
2021/07/31 05:25:43;;;;;;;2.23;1.70;;;16.50;99.90;;;;;;5043771;28;20206;-45
2021/07/31 05:28:10;;;;;;;3.77;2.03;;;16.50;99.90;;;;;;5039862;28;20284;-45
2021/07/31 05:30:39;;;;;;;4.87;2.37;;;16.50;99.90;;;;;;5043636;28;20211;-47
2021/07/31 05:33:06;;;;;;;3.37;2.60;;;16.50;99.90;;;;;;5025235;28;20758;-45
2021/07/31 05:35:33;;;;;;;6.37;2.03;;;16.50;99.90;;;;;;5042324;28;20203;-45
2021/07/31 05:38:00;;;;;;;3.53;1.70;;;16.60;99.90;;;;;;5039561;28;20184;-45
2021/07/31 05:40:27;;;;;;;3.17;2.10;;;16.60;99.90;;;;;;5044303;28;20184;-45
2021/07/31 05:42:54;;;;;;;5.53;1.80;;;16.50;99.90;;;;;;5039748;28;20187;-45
2021/07/31 05:45:20;;;;;;;4.60;2.17;;;16.60;99.90;;;;;;5043135;28;20207;-45
2021/07/31 05:47:49;;;;;;;4.23;1.93;;;16.60;99.90;;;;;;5032800;28;20212;-44
2021/07/31 05:50:16;;;;;;;3.77;1.67;;;16.60;99.90;;;;;;5037023;28;20202;-47
2021/07/31 05:52:42;;;;;;;2.70;1.87;;;16.60;99.90;;;;;;5042096;28;20214;-45
2021/07/31 05:55:10;;;;;;;3.83;1.90;;;16.60;99.90;;;;;;5040082;28;20241;-45
2021/07/31 05:57:37;;;;;;;1.83;1.60;;;16.60;99.90;;;;;;5042071;28;20212;-49
2021/07/31 06:00:04;;;;;;;3.30;1.70;;;16.70;99.90;;;;;;5038654;28;20918;-48
2021/07/31 06:02:39;;;;;;;1.93;1.70;;;16.70;99.90;;;;;;5041884;28;20213;-46
2021/07/31 06:05:08;;;;;;;5.73;1.70;;;16.70;99.90;;;;;;5022586;28;20199;-44
2021/07/31 06:07:35;;;;;;;4.03;1.53;;;16.70;99.90;;;;;;5043610;28;20274;-43
2021/07/31 06:10:02;;;;;;;4.37;1.70;;;16.80;99.90;;;;;;5031323;28;20200;-44
2021/07/31 06:12:28;;;;;;;4.70;1.73;;;16.80;99.90;;;;;;5043157;28;20206;-45
2021/07/31 06:14:55;;;;;;;3.50;2.27;;;16.80;99.90;;;;;;5040382;28;20210;-44
2021/07/31 06:17:21;;;;;;;3.13;1.63;;;16.80;99.90;;;;;;5041693;28;20219;-48
2021/07/31 06:19:48;;;;;;;2.60;1.40;;;16.80;99.90;;;;;;5025485;28;20218;-51
2021/07/31 06:22:16;;;;;;;2.83;1.50;;;16.90;99.90;;;;;;5041146;28;20202;-46
2021/07/31 06:24:43;;;;;;;4.87;2.10;;;16.90;99.90;;;;;;5042826;28;20203;-46
2021/07/31 06:27:09;;;;;;;3.80;1.70;;;16.90;99.90;;;;;;5041462;28;20805;-44
2021/07/31 06:29:36;;;;;;;3.37;1.97;;;16.90;99.90;;;;;;5025654;28;20211;-45
2021/07/31 06:32:03;;;;;;;2.63;1.90;;;16.90;99.90;;;;;;5038638;28;20196;-45
2021/07/31 06:34:30;;;;;;;2.63;1.50;;;16.90;99.90;;;;;;5014346;28;20208;-46
2021/07/31 06:36:57;;;;;;;2.33;1.87;;;16.90;99.90;;;;;;5036503;28;20317;-46
2021/07/31 06:39:27;;;;;;;3.37;1.83;;;17.00;99.90;;;;;;5032018;28;20300;-45
2021/07/31 06:41:53;;;;;;;4.50;1.57;;;16.90;99.90;;;;;;5040598;28;20203;-48
2021/07/31 06:44:20;;;;;;;4.10;1.43;;;16.90;99.90;;;;;;5031950;28;20199;-46
2021/07/31 06:46:47;;;;;;;2.43;1.70;;;16.90;99.90;;;;;;5040672;28;20222;-46
2021/07/31 06:49:14;;;;;;;6.20;1.87;;;16.90;99.90;;;;;;5026430;28;20222;-48
2021/07/31 06:51:40;;;;;;;6.40;1.97;;;16.90;99.90;;;;;;5023526;28;20207;-45
2021/07/31 06:54:07;;;;;;;2.50;1.53;;;16.90;99.90;;;;;;5037268;28;20200;-44
2021/07/31 06:56:36;;;;;;;5.70;1.87;;;17.00;99.90;;;;;;5035583;28;20587;-46
2021/07/31 06:59:03;;;;;;;2.33;1.87;;;17.00;99.90;;;;;;5030806;28;20641;-49
2021/07/31 07:01:30;;;;;;;6.07;1.70;;;17.00;99.90;;;;;;5038977;28;20206;-49
2021/07/31 07:03:56;;;;;;;2.10;1.70;;;17.10;99.90;;;;;;5032628;28;20206;-46
2021/07/31 07:06:23;;;;;;;3.67;1.80;;;17.20;99.90;;;;;;5021271;28;20319;-47
2021/07/31 07:08:50;;;;;;;10.07;2.43;;;17.30;99.90;;;;;;5038810;28;20230;-48
2021/07/31 07:11:18;;;;;;;5.33;2.07;;;17.50;99.90;;;;;;5034892;28;20188;-44
2021/07/31 07:13:46;;;;;;;4.40;1.70;;;17.50;99.90;;;;;;5032170;28;20209;-46
2021/07/31 07:16:13;;;;;;;3.13;1.63;;;17.60;99.90;;;;;;5023648;28;20219;-48
2021/07/31 07:18:39;;;;;;;3.27;1.83;;;17.60;99.90;;;;;;5023583;28;20702;-46
2021/07/31 07:21:07;;;;;;;3.70;1.87;;;17.60;99.90;;;;;;5007896;28;24662;-45
2021/07/31 07:23:34;;;;;;;6.60;1.90;;;17.50;99.90;;;;;;5037882;28;20188;-46
2021/07/31 07:26:01;;;;;;;7.17;2.07;;;17.40;99.90;;;;;;5028879;28;20219;-48
2021/07/31 07:28:28;;;;;;;4.90;2.03;;;17.40;99.90;;;;;;5034344;28;20231;-46
2021/07/31 07:30:56;;;;;;;4.97;2.10;;;17.50;99.90;;;;;;5028715;28;20576;-46
2021/07/31 07:33:23;;;;;;;7.43;2.37;;;17.60;99.90;;;;;;5039244;28;20254;-48
2021/07/31 07:35:51;;;;;;;5.33;2.10;;;17.60;99.90;;;;;;5030110;28;20688;-48
2021/07/31 07:38:17;;;;;;;5.73;2.03;;;17.60;99.90;;;;;;5029896;28;20727;-44
2021/07/31 07:40:44;;;;;;;7.70;1.97;;;17.60;99.90;;;;;;5036686;28;20200;-45
2021/07/31 07:43:12;;;;;;;4.27;1.67;;;17.70;99.90;;;;;;5034013;28;20183;-45
2021/07/31 07:45:39;;;;;;;3.23;2.00;;;17.60;99.90;;;;;;5039658;28;20203;-45
2021/07/31 07:48:07;;;;;;;2.47;2.00;;;17.60;99.90;;;;;;5034719;28;20238;-46
2021/07/31 07:50:34;;;;;;;3.70;2.00;;;17.70;99.90;;;;;;5026725;28;20662;-46
2021/07/31 07:53:01;;;;;;;4.33;2.03;;;17.70;99.90;;;;;;5017047;28;20607;-45
2021/07/31 07:55:28;;;;;;;3.60;2.40;;;17.80;99.90;;;;;;5040571;28;20303;-47
2021/07/31 07:57:55;;;;;;;5.20;2.10;;;17.90;99.90;;;;;;5031807;28;20192;-44
2021/07/31 08:00:21;;;;;;;9.67;1.83;;;18.10;99.90;;;;;;5037703;28;20203;-44
2021/07/31 08:02:48;;;;;;;4.60;2.10;;;18.10;99.90;;;;;;5030628;28;20205;-46
2021/07/31 08:05:16;;;;;;;4.53;1.90;;;18.30;99.90;;;;;;5034271;28;20388;-46
2021/07/31 08:07:44;;;;;;;2.93;1.93;;;18.50;99.90;;;;;;5022150;28;20223;-47
2021/07/31 08:10:12;;;;;;;2.37;1.50;;;18.50;99.90;;;;;;5030011;28;20705;-48
2021/07/31 08:12:39;;;;;;;2.20;1.87;;;18.50;99.90;;;;;;5039524;28;20195;-44
2021/07/31 08:15:06;;;;;;;4.40;1.90;;;18.40;99.90;;;;;;5040358;28;20214;-47
2021/07/31 08:17:33;;;;;;;2.67;1.80;;;18.20;99.90;;;;;;5037662;28;20219;-48
2021/07/31 08:20:00;;;;;;;4.20;1.50;;;18.10;99.90;;;;;;5043376;28;20183;-49
2021/07/31 08:22:28;;;;;;;5.37;1.73;;;18.10;99.90;;;;;;5024136;28;20777;-45
2021/07/31 08:24:55;;;;;;;1.50;1.40;;;18.00;99.90;;;;;;5037667;28;20206;-47
2021/07/31 08:27:21;;;;;;;2.77;2.07;;;18.00;99.90;;;;;;5045713;28;20715;-46
2021/07/31 08:29:48;;;;;;;3.63;1.63;;;18.00;99.90;;;;;;5037428;28;21005;-45
2021/07/31 08:32:15;;;;;;;6.23;1.60;;;18.10;99.90;;;;;;5044036;28;20198;-45
2021/07/31 08:34:41;;;;;;;2.63;1.60;;;18.20;99.90;;;;;;5037260;28;20199;-49
2021/07/31 08:37:09;;;;;;;4.20;1.80;;;18.20;99.90;;;;;;5039529;28;20226;-45
2021/07/31 08:39:38;;;;;;;1.80;1.40;;;18.20;99.90;;;;;;5024797;28;20223;-49
2021/07/31 08:42:05;;;;;;;3.40;1.80;;;18.20;99.90;;;;;;5037325;28;20191;-46
2021/07/31 08:44:34;;;;;;;4.20;2.07;;;18.10;99.90;;;;;;5040118;28;20256;-47
2021/07/31 08:47:03;;;;;;;2.90;1.90;;;18.00;99.90;;;;;;5030864;28;20987;-46
2021/07/31 08:49:30;;;;;;;6.73;2.30;;;18.00;99.90;;;;;;5034775;28;20310;-46
2021/07/31 08:51:58;;;;;;;5.27;1.93;;;18.00;99.90;;;;;;5031781;28;20213;-45
2021/07/31 08:54:25;;;;;;;2.50;2.20;;;18.10;99.90;;;;;;5021242;28;20262;-48
2021/07/31 08:56:53;;;;;;;4.17;1.90;;;18.00;99.90;;;;;;5024839;28;20219;-45
2021/07/31 08:59:25;;;;;;;2.13;1.70;;;18.00;99.90;;;;;;5037348;28;20184;-48
2021/07/31 09:01:51;;;;;;;5.13;2.00;;;18.00;99.90;;;;;;5033076;28;20184;-45
2021/07/31 09:04:20;;;;;;;4.23;1.93;;;18.10;99.90;;;;;;5035583;28;20687;-48
2021/07/31 09:06:47;;;;;;;3.83;2.03;;;18.10;99.90;;;;;;5034255;28;20378;-47
2021/07/31 09:09:14;;;;;;;5.30;2.10;;;18.20;99.90;;;;;;5021071;28;20231;-45
2021/07/31 09:11:58;;;;;;;4.80;1.90;;;18.20;99.90;;;;;;5029867;28;20208;-48
2021/07/31 09:14:25;;;;;;;2.70;1.80;;;18.20;99.90;;;;;;5029902;28;20222;-45
2021/07/31 09:16:52;;;;;;;3.60;2.10;;;18.20;99.90;;;;;;5020729;28;20212;-51
2021/07/31 09:19:19;;;;;;;3.90;2.40;;;18.10;99.90;;;;;;5028023;28;20507;-46
2021/07/31 09:21:47;;;;;;;1.97;1.70;;;18.10;99.90;;;;;;5030968;28;20203;-48
2021/07/31 09:24:16;;;;;;;4.33;1.93;;;18.10;99.90;;;;;;5027694;28;20214;-46
2021/07/31 09:26:47;;;;;;;3.40;1.80;;;18.10;99.90;;;;;;5036581;28;20203;-47
2021/07/31 09:29:18;;;;;;;2.60;1.87;;;18.20;99.90;;;;;;5038030;28;20222;-48
2021/07/31 09:31:51;;;;;;;6.10;1.73;;;18.30;99.90;;;;;;5033359;28;20202;-45
2021/07/31 09:34:29;;;;;;;4.53;2.03;;;18.40;99.90;;;;;;5039326;28;20207;-46
2021/07/31 09:37:24;;;;;;;2.67;1.80;;;18.50;99.90;;;;;;5030256;28;20211;-50
2021/07/31 09:39:56;;;;;;;3.00;1.90;;;18.60;99.90;;;;;;5013881;28;20226;-49
2021/07/31 09:42:28;;;;;;;3.43;2.03;;;18.70;99.90;;;;;;5037026;28;20198;-48
2021/07/31 09:44:56;;;;;;;2.23;1.80;;;18.80;99.90;;;;;;5031607;28;20200;-49
2021/07/31 09:47:23;;;;;;;4.40;1.80;;;18.80;99.90;;;;;;5032554;28;20220;-49
2021/07/31 09:49:50;;;;;;;4.77;2.07;;;18.70;99.90;;;;;;5031279;28;20211;-46
2021/07/31 09:52:18;;;;;;;3.63;1.70;;;18.60;99.90;;;;;;5032617;28;20231;-49
2021/07/31 09:54:45;;;;;;;2.53;1.63;;;18.60;99.90;;;;;;5035018;28;20187;-47
2021/07/31 09:57:13;;;;;;;3.47;1.90;;;18.60;99.90;;;;;;5017202;28;20219;-46
2021/07/31 09:59:44;;;;;;;2.70;1.80;;;18.60;99.90;;;;;;5029598;28;20662;-44
2021/07/31 10:02:15;;;;;;;3.53;1.80;;;18.80;99.90;;;;;;5041282;28;20194;-46
2021/07/31 10:04:42;;;;;;;3.90;1.70;;;18.90;99.90;;;;;;5032857;28;20200;-47
2021/07/31 10:07:10;;;;;;;3.10;1.80;;;19.00;99.90;;;;;;5040713;28;20239;-47
2021/07/31 10:09:39;;;;;;;4.43;1.70;;;18.90;99.90;;;;;;5032205;28;20211;-46
2021/07/31 10:12:09;;;;;;;3.07;1.70;;;18.90;99.90;;;;;;5020439;28;20583;-45
2021/07/31 10:14:36;;;;;;;2.37;2.00;;;18.80;99.90;;;;;;5037877;28;20206;-52
2021/07/31 10:17:03;;;;;;;2.40;1.70;;;18.80;99.90;;;;;;5043249;28;20642;-46
2021/07/31 10:19:40;;;;;;;3.63;1.70;;;19.00;99.90;;;;;;5029641;28;20677;-47
2021/07/31 10:22:07;;;;;;;3.73;1.93;;;19.30;99.90;;;;;;5037774;28;20211;-47
2021/07/31 10:25:09;;;;;;;3.27;2.37;;;19.40;99.90;;;;;;5038597;28;20198;-51
2021/07/31 10:27:36;;;;;;;2.80;2.13;;;19.30;99.90;;;;;;5025360;28;20754;-48
2021/07/31 10:30:06;;;;;;;4.77;2.17;;;19.10;99.90;;;;;;5030673;28;20243;-47
2021/07/31 10:32:43;;;;;;;2.23;1.90;;;19.10;99.90;;;;;;5032417;28;20301;-49
2021/07/31 10:35:28;;;;;;;2.60;2.10;;;19.10;99.90;;;;;;5035989;28;20203;-49
2021/07/31 10:37:56;;;;;;;4.20;2.03;;;19.10;99.90;;;;;;5034271;28;20215;-45
2021/07/31 10:40:53;;;;;;;3.57;1.97;;;19.00;99.90;;;;;;5040393;28;20187;-50
2021/07/31 10:43:20;;;;;;;4.43;2.30;;;19.00;99.90;;;;;;5032524;28;20199;-47
2021/07/31 10:45:49;;;;;;;4.17;2.30;;;19.00;99.90;;;;;;5027232;28;20207;-48
2021/07/31 10:48:27;;;;;;;1.67;1.57;;;19.00;99.90;;;;;;5032173;28;20269;-52
2021/07/31 10:50:56;;;;;;;1.97;1.40;;;19.10;99.90;;;;;;5035619;28;20211;-53
2021/07/31 10:53:22;;;;;;;3.57;1.73;;;19.20;99.90;;;;;;5036810;28;20202;-49
2021/07/31 10:56:03;;;;;;;3.83;1.40;;;19.30;99.90;;;;;;5029514;28;21012;-46
2021/07/31 10:58:31;;;;;;;2.80;1.40;;;19.40;99.90;;;;;;5035783;28;20203;-51
2021/07/31 11:01:23;;;;;;;2.60;1.60;;;19.40;99.90;;;;;;5024624;28;20689;-47
2021/07/31 11:03:50;;;;;;;5.20;1.97;;;19.50;99.90;;;;;;5032845;28;20253;-45
2021/07/31 11:06:18;;;;;;;3.37;1.70;;;19.80;99.90;;;;;;5038517;28;20219;-51
2021/07/31 11:09:13;;;;;;;2.07;1.60;;;19.80;99.90;;;;;;5033301;28;21011;-47
2021/07/31 11:11:40;;;;;;;2.50;1.37;;;19.70;99.90;;;;;;5037602;28;20838;-46
2021/07/31 11:14:08;;;;;;;2.37;1.53;;;19.70;99.90;;;;;;5035760;28;20203;-51
2021/07/31 11:16:34;;;;;;;1.63;1.30;;;19.80;99.90;;;;;;5020637;28;20215;-50
2021/07/31 11:19:02;;;;;;;2.00;1.47;;;19.80;99.90;;;;;;5039382;28;20561;-48
2021/07/31 11:21:32;;;;;;;5.30;1.90;;;19.80;99.90;;;;;;5031832;28;20712;-47
2021/07/31 11:24:01;;;;;;;2.87;1.70;;;19.90;99.90;;;;;;5038115;28;20222;-48
2021/07/31 11:26:44;;;;;;;2.27;1.70;;;19.80;99.90;;;;;;5031596;28;20627;-49
2021/07/31 11:29:13;;;;;;;5.13;1.53;;;19.80;99.90;;;;;;5031378;28;20257;-49
2021/07/31 11:31:41;;;;;;;1.43;1.20;;;19.80;99.90;;;;;;5022644;28;20204;-47
2021/07/31 11:34:11;;;;;;;2.50;1.47;;;19.80;99.90;;;;;;5036640;28;20199;-48
2021/07/31 11:36:40;;;;;;;1.60;1.20;;;19.80;99.90;;;;;;5032099;28;20948;-48
2021/07/31 11:39:08;;;;;;;3.63;1.40;;;19.70;99.90;;;;;;5041205;28;20211;-48
2021/07/31 11:41:40;;;;;;;1.57;0.80;;;19.60;99.90;;;;;;5035057;28;20198;-48
2021/07/31 11:44:07;;;;;;;1.90;1.00;;;19.60;99.90;;;;;;5045102;28;20578;-49
2021/07/31 11:46:37;;;;;;;2.07;1.10;;;19.50;99.90;;;;;;5022363;28;20270;-50
2021/07/31 11:49:06;;;;;;;1.93;1.10;;;19.50;99.90;;;;;;5044844;28;20209;-49
2021/07/31 11:51:33;;;;;;;4.13;1.60;;;19.40;99.90;;;;;;5038375;28;20723;-50
2021/07/31 11:54:08;;;;;;;2.60;1.37;;;19.30;99.90;;;;;;5045459;28;20528;-47
2021/07/31 11:56:36;;;;;;;2.30;1.13;;;19.10;99.90;;;;;;5039143;28;20219;-45
2021/07/31 11:59:05;;;;;;;4.47;1.40;;;18.90;99.90;;;;;;5027120;28;20212;-45
2021/07/31 12:01:32;;;;;;;1.83;1.00;;;18.70;99.90;;;;;;5018960;28;20423;-48
2021/07/31 12:03:58;;;;;;;3.73;1.40;;;18.50;99.90;;;;;;5042983;28;20414;-44
2021/07/31 12:06:33;;;;;;;2.10;1.27;;;18.40;99.90;;;;;;5030136;28;20298;-49
2021/07/31 12:09:02;;;;;;;1.87;1.20;;;18.40;99.90;;;;;;5038868;28;20203;-46
2021/07/31 12:11:34;;;;;;;1.70;1.17;;;18.30;99.90;;;;;;5041864;28;20226;-50
2021/07/31 12:14:01;;;;;;;3.07;1.20;;;18.30;99.90;;;;;;5046037;28;20223;-48
2021/07/31 12:16:28;;;;;;;1.03;0.80;;;18.30;99.90;;;;;;5019547;28;20254;-46
2021/07/31 12:18:55;;;;;;;1.37;1.10;;;18.30;99.90;;;;;;5024994;28;20191;-45
2021/07/31 12:21:26;;;;;;;1.67;0.90;;;18.40;99.90;;;;;;5043616;28;20203;-48
2021/07/31 12:23:53;;;;;;;1.17;1.00;;;18.40;99.90;;;;;;5038565;28;20936;-47
2021/07/31 12:26:30;;;;;;;2.17;0.97;;;18.40;99.90;;;;;;5036109;28;20226;-45
2021/07/31 12:28:58;;;;;;;1.90;1.00;;;18.40;99.90;;;;;;5034696;28;20226;-43
2021/07/31 12:31:26;;;;;;;2.30;1.10;;;18.30;99.90;;;;;;5032995;28;20207;-48
2021/07/31 12:33:53;;;;;;;2.57;1.00;;;18.30;99.90;;;;;;5025226;28;20560;-48
2021/07/31 12:36:20;;;;;;;2.47;1.00;;;18.30;99.90;;;;;;5040756;28;20215;-46
2021/07/31 12:38:47;;;;;;;1.83;0.83;;;18.20;99.90;;;;;;5040816;28;20211;-44
2021/07/31 12:41:14;;;;;;;2.83;1.00;;;18.10;99.90;;;;;;5041706;28;20206;-49
2021/07/31 12:43:41;;;;;;;2.97;1.17;;;18.00;99.90;;;;;;5033854;28;20326;-43
2021/07/31 12:46:09;;;;;;;2.27;1.30;;;17.90;99.90;;;;;;5040723;28;20597;-48
2021/07/31 12:48:36;;;;;;;2.23;1.30;;;17.80;99.90;;;;;;5022835;28;20200;-42
2021/07/31 12:51:03;;;;;;;4.13;1.73;;;17.70;99.90;;;;;;5032741;28;20323;-46
2021/07/31 12:53:30;;;;;;;2.00;1.30;;;17.60;99.90;;;;;;5030790;28;20208;-45
2021/07/31 12:55:57;;;;;;;2.63;1.20;;;17.50;99.90;;;;;;5041299;28;20588;-43
2021/07/31 12:58:24;;;;;;;5.00;1.97;;;17.40;99.90;;;;;;5033458;28;20939;-47